Time;durP1;ratioP1;P1;durP2;ratioP2;P2;SDS_P1;SDS_P2;PMS_P1;PMS_P2;Temp;Humidity;BMP_temperature;BMP_pressure;BME280_temperature;BME280_humidity;BME280_pressure;Samples;Min_cycle;Max_cycle;Signal;HPM_P1;HPM_P2
2022/01/08 00:00:32;;;;;;;0.43;0.43;;;0.20;1.40;;;0.61;100.00;95093.78;648616;212;31543;-78
2022/01/08 00:03:13;;;;;;;0.40;0.40;;;0.10;1.40;;;0.61;100.00;95089.30;648415;216;31537;-78
2022/01/08 00:05:57;;;;;;;0.50;0.50;;;0.00;1.40;;;0.36;100.00;95087.31;642584;212;32772;-78
2022/01/08 00:08:46;;;;;;;1.33;1.02;;;-0.30;1.40;;;0.22;100.00;95093.02;647344;216;31500;-79
2022/01/08 00:11:35;;;;;;;0.60;0.60;;;-0.40;1.40;;;0.12;100.00;95085.78;648593;216;31528;-78
2022/01/08 00:14:20;;;;;;;0.85;0.52;;;-0.70;1.40;;;-0.02;100.00;95085.26;620804;226;31949;-78
2022/01/08 00:17:01;;;;;;;0.70;0.70;;;-0.80;1.40;;;-0.21;100.00;95086.91;648548;216;31524;-78
2022/01/08 00:19:43;;;;;;;0.60;0.50;;;-0.90;1.40;;;-0.30;100.00;95080.23;646866;212;31580;-79
2022/01/08 00:22:25;;;;;;;0.70;0.70;;;-1.00;1.40;;;-0.49;100.00;95074.03;648143;216;31616;-78
2022/01/08 00:25:08;;;;;;;1.70;0.50;;;-1.10;1.40;;;-0.62;100.00;95066.84;647869;212;31603;-79
2022/01/08 00:27:50;;;;;;;1.50;0.50;;;-1.40;1.40;;;-0.78;100.00;95064.34;648923;216;31472;-78
2022/01/08 00:30:33;;;;;;;1.20;0.88;;;-1.60;1.40;;;-0.81;100.00;95057.22;646245;216;31655;-77
2022/01/08 00:35:53;;;;;;;0.82;0.82;;;-1.60;1.40;;;-0.82;100.00;95047.16;646946;216;31714;-74
2022/01/08 00:38:35;;;;;;;0.50;0.50;;;-1.50;1.40;;;-0.90;100.00;95045.38;645430;216;31760;-74
2022/01/08 00:41:16;;;;;;;0.50;0.50;;;-1.50;1.40;;;-0.99;100.00;95039.63;646667;216;31506;-77
2022/01/08 00:43:58;;;;;;;2.10;0.70;;;-1.70;1.40;;;-1.01;100.00;95036.56;647612;216;31598;-74
2022/01/08 00:46:43;;;;;;;0.45;0.40;;;-1.80;1.40;;;-1.03;100.00;95039.14;618789;222;32141;-77
2022/01/08 00:49:25;;;;;;;0.70;0.70;;;-1.70;1.40;;;-0.95;100.00;95033.73;645620;215;31544;-74
2022/01/08 00:52:06;;;;;;;1.40;0.90;;;-1.40;1.40;;;-0.74;100.00;95027.44;620679;226;31844;-74
2022/01/08 00:54:48;;;;;;;0.40;0.30;;;-1.20;1.40;;;-0.61;100.00;95024.64;647188;212;31648;-77
2022/01/08 00:57:33;;;;;;;0.60;0.60;;;-1.00;1.40;;;-0.59;100.00;95026.38;646531;216;31535;-76
2022/01/08 01:02:00;;;;;;;0.60;0.50;;;-1.00;1.40;;;-0.72;100.00;95020.83;647110;216;31505;-74
2022/01/08 01:04:42;;;;;;;0.70;0.40;;;-1.20;1.40;;;-0.92;100.00;95022.16;645903;216;31663;-76
2022/01/08 01:07:23;;;;;;;1.33;1.00;;;-1.40;1.40;;;-1.00;100.00;95009.98;646393;216;31515;-76
2022/01/08 01:10:06;;;;;;;0.52;0.52;;;-1.50;1.40;;;-1.08;100.00;95012.72;646269;212;31496;-76
2022/01/08 01:12:47;;;;;;;0.50;0.40;;;-1.60;1.40;;;-0.97;100.00;95002.20;646039;216;31492;-73
2022/01/08 01:15:32;;;;;;;0.43;0.43;;;-1.50;1.40;;;-0.92;100.00;94995.44;645665;216;31519;-76
2022/01/08 01:18:14;;;;;;;0.40;0.40;;;-1.40;1.40;;;-0.59;100.00;94988.42;646594;212;32684;-76
2022/01/08 01:20:55;;;;;;;3.80;0.75;;;-1.00;1.40;;;-0.48;100.00;94987.89;618907;222;33552;-75
2022/01/08 01:23:43;;;;;;;0.75;0.57;;;-0.90;1.40;;;-0.42;100.00;94983.23;646578;216;31516;-74
2022/01/08 01:26:25;;;;;;;0.40;0.30;;;-0.90;1.40;;;-0.34;100.00;94981.17;646744;216;31490;-77
2022/01/08 01:42:05;;;;;;;0.50;0.40;;;-3.90;1.40;;;-2.76;100.00;94949.18;645650;216;31576;-77
2022/01/08 01:47:29;;;;;;;0.45;0.45;;;-3.20;1.40;;;-2.50;100.00;94940.59;645934;216;31506;-77
2022/01/08 01:50:11;;;;;;;2.00;0.60;;;-2.90;1.40;;;-2.39;100.00;94935.36;646210;212;31586;-76
2022/01/08 01:52:56;;;;;;;0.40;0.40;;;-2.80;1.40;;;-2.66;100.00;94937.39;647310;216;31472;-74
2022/01/08 01:55:44;;;;;;;0.40;0.40;;;-3.20;1.40;;;-2.64;100.00;94934.34;648126;216;31526;-78
2022/01/08 01:58:31;;;;;;;0.57;0.40;;;-3.20;1.40;;;-2.55;100.00;94924.83;641176;217;31592;-77
2022/01/08 02:01:13;;;;;;;0.40;0.32;;;-3.20;1.40;;;-2.57;100.00;94925.55;646590;213;42111;-74
2022/01/08 02:03:57;;;;;;;0.40;0.30;;;-3.40;1.40;;;-2.73;100.00;94918.09;647663;216;31957;-79
2022/01/08 02:06:44;;;;;;;0.43;0.32;;;-3.80;1.40;;;-3.03;100.00;94913.44;640169;212;32321;-75
2022/01/08 02:09:26;;;;;;;0.40;0.40;;;-4.10;1.40;;;-3.26;100.00;94913.55;646620;212;33100;-76
2022/01/08 02:12:11;;;;;;;0.60;0.60;;;-4.30;1.40;;;-3.46;100.00;94909.81;647203;216;31869;-77
2022/01/08 02:14:50;;;;;;;0.40;0.30;;;-4.40;1.40;;;-3.52;100.00;94904.22;647544;212;31679;-77
2022/01/08 02:17:32;;;;;;;1.00;0.40;;;-4.20;1.40;;;-3.40;100.00;94895.70;647124;216;32111;-75
2022/01/08 02:20:13;;;;;;;0.40;0.30;;;-4.00;1.40;;;-3.36;100.00;94890.73;618048;222;32485;-77
2022/01/08 02:22:55;;;;;;;0.75;0.50;;;-4.10;1.40;;;-3.56;100.00;94896.58;647713;212;31811;-74
2022/01/08 02:25:37;;;;;;;0.50;0.50;;;-4.50;1.40;;;-3.66;100.00;94896.98;648325;212;31496;-77
2022/01/08 02:28:18;;;;;;;2.40;0.70;;;-4.70;1.40;;;-3.67;100.00;94895.80;646450;212;32144;-74
2022/01/08 02:31:03;;;;;;;0.70;0.60;;;-4.70;1.40;;;-4.07;100.00;94891.13;646883;212;31675;-74
2022/01/08 02:35:57;;;;;;;0.68;0.40;;;-4.80;1.40;;;-4.15;100.00;94875.14;641800;216;31571;-77
2022/01/08 02:38:42;;;;;;;0.90;0.90;;;-5.00;1.40;;;-4.10;100.00;94867.59;647924;212;42236;-74
2022/01/08 02:41:26;;;;;;;0.50;0.50;;;-5.20;1.40;;;-3.98;100.00;94863.72;646876;216;31882;-74
2022/01/08 02:44:08;;;;;;;0.40;0.30;;;-5.10;1.40;;;-4.25;100.00;94857.31;646444;212;31697;-75
2022/01/08 02:49:28;;;;;;;0.50;0.30;;;-5.40;1.40;;;-4.53;100.00;94855.24;618710;226;33929;-78
2022/01/08 02:52:09;;;;;;;0.50;0.50;;;-5.60;1.40;;;-4.70;100.00;94847.90;646883;212;31557;-75
2022/01/08 02:54:51;;;;;;;0.50;0.40;;;-5.80;1.40;;;-4.80;100.00;94847.70;646677;216;31560;-77
2022/01/08 02:57:34;;;;;;;0.40;0.30;;;-5.80;1.40;;;-4.71;100.00;94846.97;648872;212;31475;-78
2022/01/08 03:00:17;;;;;;;1.33;0.52;;;-5.70;1.40;;;-4.78;100.00;94845.46;620142;226;31814;-78
2022/01/08 03:03:00;;;;;;;0.40;0.40;;;-5.80;1.40;;;-4.85;100.00;94842.97;619821;226;33014;-77
2022/01/08 03:05:42;;;;;;;0.40;0.30;;;-5.80;1.40;;;-4.94;100.00;94843.00;646658;216;38582;-77
2022/01/08 03:08:27;;;;;;;0.80;0.40;;;-6.10;1.40;;;-5.05;100.00;94840.37;646459;216;42155;-77
2022/01/08 03:11:10;;;;;;;0.40;0.32;;;-6.10;1.40;;;-5.18;100.00;94830.01;648172;216;42284;-78
2022/01/08 03:13:52;;;;;;;0.70;0.40;;;-6.20;1.40;;;-5.19;100.00;94825.19;648429;216;31543;-78
2022/01/08 03:16:40;;;;;;;0.50;0.30;;;-6.10;1.40;;;-4.94;100.00;94816.20;647311;216;31614;-77
2022/01/08 03:19:25;;;;;;;0.57;0.47;;;-5.70;1.40;;;-5.06;100.00;94813.48;646710;216;31563;-76
2022/01/08 03:22:06;;;;;;;0.50;0.40;;;-5.80;1.40;;;-5.24;100.00;94804.73;645862;215;31529;-77
2022/01/08 03:24:48;;;;;;;0.47;0.32;;;-6.10;1.40;;;-5.37;100.00;94800.57;647288;216;31543;-77
2022/01/08 03:27:30;;;;;;;0.40;0.40;;;-6.20;1.40;;;-5.42;100.00;94797.01;647205;212;31579;-74
2022/01/08 03:30:12;;;;;;;0.40;0.30;;;-6.30;1.40;;;-5.42;100.00;94794.44;647304;216;31504;-75
2022/01/08 03:32:53;;;;;;;0.70;0.60;;;-6.20;1.40;;;-5.30;100.00;94791.73;645142;212;31503;-78
2022/01/08 03:35:52;;;;;;;0.40;0.40;;;-6.10;1.40;;;-5.05;100.00;94782.07;646871;216;31848;-79
2022/01/08 03:38:40;;;;;;;0.73;0.40;;;-5.70;1.40;;;-5.13;100.00;94773.34;646297;216;31541;-75
2022/01/08 03:41:22;;;;;;;0.40;0.40;;;-5.80;1.40;;;-4.83;100.00;94768.59;646686;216;31481;-74
2022/01/08 03:44:04;;;;;;;2.60;0.60;;;-5.40;1.40;;;-4.55;100.00;94762.47;620182;222;31900;-77
2022/01/08 03:46:46;;;;;;;0.40;0.30;;;-5.10;1.40;;;-4.38;100.00;94759.80;646398;212;32364;-76
2022/01/08 03:49:28;;;;;;;0.40;0.30;;;-5.10;1.40;;;-4.25;100.00;94759.44;647008;216;42110;-75
2022/01/08 03:52:09;;;;;;;0.40;0.30;;;-5.00;1.40;;;-4.05;100.00;94754.31;645846;214;31706;-76
2022/01/08 03:54:57;;;;;;;0.40;0.30;;;-4.80;1.40;;;-4.18;100.00;94747.16;648748;216;31477;-79
2022/01/08 03:57:38;;;;;;;0.40;0.40;;;-5.00;1.40;;;-4.19;100.00;94747.89;619440;226;31878;-78
2022/01/08 04:00:26;;;;;;;0.52;0.32;;;-5.00;1.40;;;-4.39;100.00;94739.71;618286;226;31879;-76
2022/01/08 04:03:08;;;;;;;0.40;0.30;;;-5.20;1.40;;;-4.43;100.00;94738.57;647614;216;31494;-76
2022/01/08 04:05:50;;;;;;;0.90;0.50;;;-5.20;1.40;;;-4.14;100.00;94731.59;646982;216;31760;-76
2022/01/08 04:08:37;;;;;;;1.30;0.50;;;-4.60;1.40;;;-3.62;100.00;94725.57;648384;212;31513;-78
2022/01/08 04:11:21;;;;;;;0.40;0.30;;;-4.10;1.40;;;-3.72;100.00;94718.55;646704;216;31620;-75
2022/01/08 04:14:03;;;;;;;0.70;0.40;;;-4.70;1.40;;;-3.93;100.00;94717.82;646283;212;31806;-77
2022/01/08 04:16:51;;;;;;;0.60;0.40;;;-5.20;1.40;;;-4.09;100.00;94718.61;647636;212;31486;-76
2022/01/08 04:19:29;;;;;;;0.50;0.40;;;-5.40;1.40;;;-4.17;100.00;94719.63;646427;212;31631;-74
2022/01/08 04:22:13;;;;;;;0.40;0.30;;;-5.10;1.40;;;-3.91;100.00;94715.77;646649;216;31540;-76
2022/01/08 04:24:54;;;;;;;0.40;0.35;;;-4.30;1.40;;;-3.32;100.00;94714.13;646268;215;31816;-76
2022/01/08 04:27:34;;;;;;;0.40;0.30;;;-3.70;1.40;;;-3.31;100.00;94712.56;647449;216;31584;-76
2022/01/08 04:30:16;;;;;;;0.40;0.30;;;-4.00;1.40;;;-2.90;100.00;94705.39;646580;216;31590;-77
2022/01/08 04:32:58;;;;;;;1.40;0.43;;;-3.30;1.40;;;-2.42;100.00;94701.24;647501;216;31551;-77
2022/01/08 04:35:51;;;;;;;0.40;0.30;;;-2.80;1.40;;;-2.11;100.00;94700.53;646290;216;42187;-77
2022/01/08 04:38:35;;;;;;;0.50;0.40;;;-2.50;1.40;;;-1.97;100.00;94704.73;647382;216;32095;-78
2022/01/08 04:41:19;;;;;;;1.70;1.10;;;-2.50;1.40;;;-1.84;100.00;94711.80;646111;212;31646;-74
2022/01/08 04:44:01;;;;;;;0.40;0.20;;;-2.30;1.40;;;-1.64;100.00;94720.37;646617;216;31676;-75
2022/01/08 04:46:46;;;;;;;0.40;0.32;;;-2.10;1.40;;;-1.45;100.00;94721.69;646379;212;31601;-76
2022/01/08 04:49:30;;;;;;;0.40;0.40;;;-1.80;1.40;;;-1.30;100.00;94765.44;649803;212;31533;-78
2022/01/08 04:52:11;;;;;;;0.40;0.40;;;-1.70;1.40;;;-1.02;100.00;94776.31;646812;216;31489;-78
2022/01/08 04:54:55;;;;;;;0.40;0.40;;;-1.50;1.40;;;-1.02;100.00;94763.34;646177;212;31864;-76
2022/01/08 04:57:37;;;;;;;0.40;0.30;;;-1.40;1.40;;;-1.04;100.00;94764.86;646071;212;31800;-76
2022/01/08 05:00:19;;;;;;;0.90;0.52;;;-1.40;1.40;;;-0.98;100.00;94758.97;645946;212;31563;-78
2022/01/08 05:03:00;;;;;;;0.70;0.70;;;-1.40;1.40;;;-0.93;100.00;94764.69;646316;212;31559;-75
2022/01/08 05:05:42;;;;;;;0.60;0.60;;;-1.30;1.40;;;-0.87;100.00;94758.95;645398;216;31511;-75
2022/01/08 05:08:23;;;;;;;0.47;0.47;;;-1.20;1.40;;;-0.82;100.00;94760.55;647280;212;31522;-75
2022/01/08 05:11:11;;;;;;;0.40;0.40;;;-1.20;1.40;;;-0.71;100.00;94756.96;647955;216;31495;-78
2022/01/08 05:13:54;;;;;;;0.70;0.40;;;-1.20;1.40;;;-0.64;100.00;94739.15;648037;216;31528;-79
2022/01/08 05:16:40;;;;;;;0.60;0.60;;;-1.10;1.40;;;-0.50;100.00;94731.31;648730;212;31501;-77
2022/01/08 05:19:25;;;;;;;0.50;0.50;;;-1.00;1.40;;;-0.43;100.00;94724.50;648684;216;31582;-78
2022/01/08 05:22:10;;;;;;;0.40;0.30;;;-1.00;1.40;;;-0.43;100.00;94713.91;631249;222;31661;-76
2022/01/08 05:24:51;;;;;;;0.50;0.50;;;-1.00;1.40;;;-0.41;100.00;94709.67;620106;222;32076;-78
2022/01/08 05:27:33;;;;;;;0.50;0.30;;;-1.00;1.40;;;-0.46;100.00;94704.52;648648;216;31461;-77
2022/01/08 05:30:17;;;;;;;0.40;0.30;;;-1.00;1.40;;;-0.43;100.00;94684.73;647602;216;31485;-77
2022/01/08 05:35:57;;;;;;;0.40;0.30;;;-0.70;1.40;;;0.02;100.00;94709.84;641992;216;31664;-74
2022/01/08 05:38:45;;;;;;;0.80;0.30;;;-0.30;1.40;;;0.14;100.00;94714.02;647592;216;31500;-78
2022/01/08 05:41:29;;;;;;;0.40;0.30;;;-0.20;1.40;;;0.15;100.00;94724.09;647073;212;31511;-78
2022/01/08 05:44:17;;;;;;;0.40;0.37;;;-0.30;1.40;;;0.11;100.00;94729.73;619160;222;43324;-78
2022/01/08 05:47:05;;;;;;;0.40;0.30;;;-0.40;1.40;;;0.09;100.00;94729.13;616277;225;32592;-78
2022/01/08 05:49:46;;;;;;;0.40;0.30;;;-0.40;1.40;;;0.10;100.00;94725.77;648505;216;31771;-78
2022/01/08 05:52:28;;;;;;;0.40;0.40;;;-0.30;1.40;;;0.09;100.00;94721.45;647348;216;31514;-78
2022/01/08 05:55:11;;;;;;;0.70;0.40;;;-0.40;1.40;;;0.18;100.00;94724.65;620602;226;32012;-78
2022/01/08 05:57:54;;;;;;;0.40;0.40;;;-0.30;1.40;;;0.11;100.00;94715.17;619455;226;31857;-77
2022/01/08 06:00:36;;;;;;;0.40;0.30;;;-0.30;1.40;;;0.14;100.00;94715.98;646787;216;31733;-77
2022/01/08 06:03:21;;;;;;;0.80;0.60;;;-0.50;1.40;;;0.14;100.00;94717.43;648091;216;31589;-80
2022/01/08 06:06:02;;;;;;;0.40;0.30;;;-0.40;1.40;;;0.22;100.00;94714.05;613652;222;33285;-78
2022/01/08 06:08:50;;;;;;;0.40;0.30;;;-0.30;1.40;;;0.37;100.00;94715.45;618778;222;32001;-74
2022/01/08 06:11:38;;;;;;;0.40;0.30;;;0.00;1.40;;;0.53;100.00;94709.69;646168;216;31914;-78
2022/01/08 06:14:25;;;;;;;1.30;0.70;;;0.20;1.40;;;0.75;100.00;94703.48;646758;212;43008;-77
2022/01/08 06:17:11;;;;;;;0.40;0.30;;;0.40;1.40;;;0.76;100.00;94710.00;649158;216;31941;-78
2022/01/08 06:19:58;;;;;;;0.40;0.30;;;0.30;1.40;;;0.90;100.00;94724.67;646753;212;42394;-77
2022/01/08 06:22:39;;;;;;;0.70;0.70;;;0.50;1.40;;;1.04;100.00;94725.86;647580;212;42700;-75
2022/01/08 06:25:29;;;;;;;0.40;0.40;;;0.80;1.40;;;1.13;100.00;94728.69;620761;226;42596;-79
2022/01/08 06:28:10;;;;;;;0.40;0.30;;;0.80;1.40;;;1.02;100.00;94721.05;647313;212;31565;-78
2022/01/08 06:30:53;;;;;;;0.40;0.20;;;0.60;1.40;;;1.07;100.00;94720.26;648221;212;31562;-79
2022/01/08 06:35:51;;;;;;;0.40;0.30;;;0.60;1.40;;;1.24;100.00;94729.45;647064;216;31804;-75
2022/01/08 06:38:39;;;;;;;0.40;0.30;;;0.90;1.40;;;1.38;100.00;94732.08;643205;215;31519;-79
2022/01/08 06:41:21;;;;;;;0.40;0.40;;;1.10;1.40;;;1.58;100.00;94729.77;620581;222;31978;-79
2022/01/08 06:44:05;;;;;;;0.40;0.30;;;1.20;1.40;;;1.67;100.00;94732.45;617393;225;42501;-77
2022/01/08 06:46:49;;;;;;;0.40;0.30;;;1.40;1.40;;;1.73;100.00;94734.30;648111;216;42105;-79
2022/01/08 06:52:11;;;;;;;0.90;0.30;;;1.30;1.40;;;1.57;100.00;94741.79;646850;216;31431;-77
2022/01/08 06:54:53;;;;;;;2.00;0.32;;;1.10;1.40;;;1.56;100.00;94742.64;646004;212;31534;-74
2022/01/08 06:57:34;;;;;;;0.40;0.30;;;1.10;1.40;;;1.56;100.00;94743.50;646684;216;42451;-77
2022/01/08 07:00:18;;;;;;;0.40;0.20;;;1.00;1.40;;;1.43;100.00;94750.29;647393;216;42132;-79
2022/01/08 07:03:09;;;;;;;0.40;0.30;;;0.90;1.40;;;1.41;100.00;94751.67;646068;216;31525;-77
2022/01/08 07:05:47;;;;;;;0.40;0.20;;;0.90;1.40;;;1.40;100.00;94760.97;645732;212;31517;-78
2022/01/08 07:08:29;;;;;;;0.40;0.30;;;1.00;1.40;;;1.44;100.00;94759.48;646607;216;43542;-77
2022/01/08 07:11:18;;;;;;;0.40;0.30;;;1.10;1.40;;;1.67;100.00;94761.78;648996;212;31512;-79
2022/01/08 07:14:01;;;;;;;0.70;0.60;;;1.20;1.40;;;1.53;100.00;94771.97;620449;226;42122;-79
2022/01/08 07:16:41;;;;;;;0.40;0.30;;;1.10;1.40;;;1.67;100.00;94780.70;648514;212;42699;-79
2022/01/08 07:19:25;;;;;;;0.40;0.20;;;1.10;1.40;;;1.61;100.00;94773.37;646952;216;31717;-75
2022/01/08 07:22:06;;;;;;;1.20;0.60;;;1.10;1.40;;;1.53;100.00;94782.22;646653;212;32617;-77
2022/01/08 07:24:48;;;;;;;0.40;0.30;;;1.00;1.40;;;1.37;100.00;94781.57;645590;216;31979;-76
2022/01/08 07:27:32;;;;;;;0.40;0.40;;;0.90;1.40;;;1.42;100.00;94781.95;647314;212;31476;-75
2022/01/08 07:30:12;;;;;;;0.40;0.30;;;0.80;1.40;;;1.30;100.00;94785.31;646232;216;31607;-74
2022/01/08 07:32:53;;;;;;;5.60;1.20;;;0.80;1.40;;;1.29;100.00;94781.73;646757;216;32484;-76
2022/01/08 07:35:53;;;;;;;0.40;0.30;;;0.60;1.40;;;1.23;100.00;94780.66;647569;216;31576;-76
2022/01/08 07:38:34;;;;;;;0.40;0.40;;;0.60;1.40;;;1.20;100.00;94786.73;646108;212;42217;-76
2022/01/08 07:41:16;;;;;;;0.40;0.35;;;0.60;1.40;;;1.12;100.00;94787.72;645935;216;31662;-74
2022/01/08 07:43:58;;;;;;;0.40;0.40;;;0.60;1.40;;;1.14;100.00;94787.67;646533;216;31491;-74
2022/01/08 07:46:39;;;;;;;0.40;0.20;;;0.70;1.40;;;1.18;100.00;94796.76;646014;212;31484;-74
2022/01/08 07:49:21;;;;;;;0.40;0.20;;;0.60;1.40;;;1.16;100.00;94785.38;645896;212;31536;-75
2022/01/08 07:52:03;;;;;;;0.40;0.40;;;0.60;1.40;;;1.18;100.00;94788.22;646234;216;31557;-75
2022/01/08 07:54:45;;;;;;;0.40;0.30;;;0.70;1.40;;;1.28;100.00;94787.87;619094;222;42465;-76
2022/01/08 07:57:29;;;;;;;0.40;0.30;;;0.70;1.40;;;1.27;100.00;94788.89;645957;216;32199;-74
2022/01/08 08:00:12;;;;;;;0.40;0.25;;;0.80;1.40;;;1.34;100.00;94783.38;646640;216;42659;-75
2022/01/08 08:02:53;;;;;;;0.40;0.20;;;0.90;1.40;;;1.47;100.00;94786.94;647818;212;42657;-73
2022/01/08 08:05:35;;;;;;;0.40;0.30;;;1.00;1.40;;;1.51;100.00;94788.25;646768;216;31703;-73
2022/01/08 08:08:17;;;;;;;0.70;0.30;;;1.00;1.40;;;1.55;100.00;94798.62;647237;212;42780;-76
2022/01/08 08:10:58;;;;;;;0.40;0.20;;;1.10;1.40;;;1.64;100.00;94797.20;646898;216;31516;-76
2022/01/08 08:13:43;;;;;;;0.40;0.23;;;1.20;1.40;;;1.73;100.00;94809.27;645873;216;31481;-77
2022/01/08 08:16:25;;;;;;;0.40;0.30;;;1.20;1.40;;;1.80;100.00;94807.30;646245;216;31623;-74
2022/01/08 08:19:06;;;;;;;0.40;0.30;;;1.30;1.40;;;1.82;100.00;94820.50;619815;226;32086;-74
2022/01/08 08:21:48;;;;;;;0.40;0.40;;;1.40;1.40;;;1.83;100.00;94833.64;646954;216;31485;-76
2022/01/08 08:24:36;;;;;;;0.40;0.20;;;1.40;1.40;;;1.83;100.00;94834.71;648080;212;42995;-78
2022/01/08 08:27:23;;;;;;;;;;;1.40;1.40;;;1.84;100.00;94825.31;653139;216;24862;-75
2022/01/08 08:30:05;;;;;;;;;;;1.40;1.40;;;1.83;100.00;94830.55;653747;216;24833;-73
2022/01/08 08:32:47;;;;;;;;;;;1.40;1.40;;;1.74;100.00;94849.23;653170;216;25367;-73
2022/01/08 08:35:51;;;;;;;0.40;0.30;;;1.40;1.40;;;1.79;100.00;94827.33;647221;216;31500;-76
2022/01/08 08:38:33;;;;;;;0.40;0.20;;;1.40;1.40;;;1.86;100.00;94837.23;646138;216;31873;-74
2022/01/08 08:41:17;;;;;;;0.50;0.50;;;1.50;1.40;;;1.94;100.00;94843.73;647578;216;31508;-74
2022/01/08 08:43:59;;;;;;;0.40;0.20;;;1.60;1.40;;;1.97;100.00;94844.22;646960;216;31558;-74
2022/01/08 08:46:43;;;;;;;0.50;0.30;;;1.70;1.40;;;1.97;100.00;94843.42;647007;216;31505;-77
2022/01/08 08:49:25;;;;;;;0.40;0.30;;;1.70;1.40;;;1.99;100.00;94859.25;647544;216;42120;-77
2022/01/08 08:52:09;;;;;;;0.60;0.30;;;1.60;1.40;;;1.97;100.00;94862.66;621048;226;43368;-78
2022/01/08 08:54:51;;;;;;;0.40;0.30;;;1.60;1.40;;;1.96;100.00;94873.94;647678;216;31493;-78
2022/01/08 08:57:33;;;;;;;0.40;0.30;;;1.60;1.40;;;1.91;100.00;94894.67;618910;226;42657;-78
2022/01/08 09:00:15;;;;;;;0.40;0.22;;;1.50;1.40;;;1.76;100.00;94912.94;648259;216;31501;-77
2022/01/08 09:03:00;;;;;;;0.50;0.40;;;1.30;1.40;;;1.66;100.00;94931.20;647365;212;42307;-78
2022/01/08 09:05:42;;;;;;;0.40;0.30;;;1.20;1.40;;;1.75;100.00;94921.05;643301;212;31654;-77
2022/01/08 09:08:23;;;;;;;0.40;0.20;;;1.40;1.40;;;1.99;100.00;94935.58;647031;212;31516;-78
2022/01/08 09:11:05;;;;;;;;;;;1.70;1.40;;;2.11;100.00;94940.39;653777;216;24890;-78
2022/01/08 09:13:46;;;;;;;;;;;1.80;1.40;;;2.20;100.00;94941.97;654110;212;25443;-78
2022/01/08 09:16:34;;;;;;;;;;;1.70;1.40;;;2.59;100.00;94940.84;653711;216;24995;-78
2022/01/08 09:19:21;;;;;;;;;;;2.20;1.40;;;2.39;100.00;94945.13;654103;216;24845;-79
2022/01/08 09:22:05;;;;;;;;;;;1.80;1.40;;;2.21;100.00;94959.67;648026;217;25188;-75
2022/01/08 09:24:54;;;;;;;;;;;1.60;1.40;;;1.95;100.00;94965.23;655183;216;25072;-77
2022/01/08 09:27:34;;;;;;;;;;;1.40;1.40;;;1.82;100.00;94967.09;655173;212;24805;-77
2022/01/08 09:30:21;;;;;;;;;;;1.30;1.40;;;1.77;100.00;94990.80;652823;214;25337;-75
2022/01/08 09:35:52;;;;;;;0.40;0.30;;;1.40;1.40;;;1.80;100.00;94995.09;664643;209;31884;-77
2022/01/08 09:38:39;;;;;;;0.40;0.22;;;1.50;1.40;;;1.82;100.00;95002.78;646979;216;42102;-77
2022/01/08 09:41:27;;;;;;;0.40;0.30;;;1.50;1.40;;;1.83;100.00;95003.86;620772;222;32390;-74
2022/01/08 09:44:15;;;;;;;0.40;0.20;;;1.50;1.40;;;1.93;100.00;95007.52;649152;212;42096;-78
2022/01/08 09:47:06;;;;;;;0.40;0.30;;;1.60;1.40;;;1.93;100.00;95011.20;647522;216;32103;-74
2022/01/08 09:49:53;;;;;;;0.50;0.30;;;1.60;1.40;;;1.95;100.00;95022.44;647452;216;31482;-77
2022/01/08 09:52:41;;;;;;;0.40;0.40;;;1.60;1.40;;;1.97;100.00;95027.36;646290;213;31682;-77
2022/01/08 09:55:29;;;;;;;1.80;0.70;;;1.60;1.40;;;1.96;100.00;95032.75;648078;216;31568;-79
2022/01/08 09:58:17;;;;;;;0.40;0.30;;;1.60;1.40;;;1.98;100.00;95043.62;642187;215;31507;-74
2022/01/08 10:00:58;;;;;;;0.40;0.30;;;1.60;1.40;;;2.04;100.00;95047.33;645572;216;31504;-74
2022/01/08 10:03:46;;;;;;;0.55;0.32;;;1.70;1.40;;;2.06;100.00;95047.74;647417;212;31494;-78
2022/01/08 10:06:31;;;;;;;0.50;0.40;;;1.60;1.40;;;2.06;100.00;95035.66;613107;222;44122;-77
2022/01/08 10:09:18;;;;;;;0.70;0.60;;;1.60;1.40;;;2.17;100.00;95051.84;647545;216;42106;-75
2022/01/08 10:12:00;;;;;;;0.40;0.40;;;1.60;1.40;;;2.05;100.00;95054.10;647854;216;31523;-74
2022/01/08 10:17:52;;;;;;;0.50;0.30;;;1.70;1.40;;;2.27;100.00;95065.12;646975;216;42140;-74
2022/01/08 10:20:36;;;;;;;0.70;0.60;;;1.70;1.40;;;2.27;100.00;95079.52;645843;216;31514;-75
2022/01/08 10:23:21;;;;;;;0.40;0.40;;;1.70;1.40;;;2.25;100.00;95073.35;647138;216;42094;-77
2022/01/08 10:26:08;;;;;;;0.50;0.30;;;1.70;1.40;;;2.22;100.00;95077.01;647023;216;31514;-76
2022/01/08 10:28:53;;;;;;;0.40;0.32;;;1.70;1.40;;;2.66;100.00;95088.41;647301;212;42082;-76
2022/01/08 10:31:40;;;;;;;0.40;0.30;;;2.10;1.40;;;2.62;100.00;95080.80;648844;212;31695;-80
2022/01/08 10:35:53;;;;;;;1.40;0.30;;;1.70;1.40;;;3.02;100.00;95091.16;617950;226;32198;-74
2022/01/08 10:38:34;;;;;;;0.40;0.40;;;3.50;1.40;;;4.74;100.00;95095.38;645755;216;31506;-74
2022/01/08 10:41:16;;;;;;;0.60;0.40;;;4.70;1.40;;;4.37;100.00;95102.30;645851;216;31942;-73
2022/01/08 10:44:06;;;;;;;0.55;0.30;;;3.20;1.40;;;3.45;100.00;95099.81;642589;214;31510;-76
2022/01/08 10:46:57;;;;;;;0.40;0.40;;;3.90;1.40;;;5.22;100.00;95099.84;646750;212;31529;-75
2022/01/08 10:49:42;;;;;;;0.63;0.63;;;5.00;1.40;;;5.51;100.00;95109.00;651701;216;23446;-74
2022/01/08 10:52:24;;;;;;;0.50;0.43;;;5.60;1.40;;;5.68;100.00;95109.59;647110;216;31749;-74
2022/01/08 10:55:06;;;;;;;0.40;0.40;;;4.70;1.40;;;4.50;100.00;95111.67;630718;220;31672;-76
2022/01/08 10:57:51;;;;;;;0.60;0.40;;;3.10;1.40;;;4.37;100.00;95116.68;619141;226;32296;-75
2022/01/08 11:00:32;;;;;;;0.50;0.40;;;3.60;1.40;;;4.56;100.00;95107.08;646699;216;31462;-76
2022/01/08 11:03:14;;;;;;;0.70;0.40;;;3.20;1.40;;;3.31;100.00;95105.78;645679;216;42116;-77
2022/01/08 11:06:01;;;;;;;0.57;0.50;;;2.00;1.40;;;2.82;100.00;95120.60;643707;212;31654;-76
2022/01/08 11:08:45;;;;;;;0.50;0.50;;;1.70;1.40;;;2.39;100.00;95114.86;647773;212;31644;-73
2022/01/08 11:11:31;;;;;;;0.68;0.68;;;1.50;1.40;;;2.06;100.00;95118.96;646296;216;42118;-74
2022/01/08 11:14:21;;;;;;;0.60;0.60;;;1.40;1.40;;;2.48;100.00;95116.27;619555;226;31830;-74
2022/01/08 11:16:53;;;;;;;0.50;0.50;;;2.20;1.40;;;3.02;100.00;95114.99;635089;220;31838;-73
2022/01/08 11:19:35;;;;;;;0.85;0.68;;;2.60;1.40;;;3.77;100.00;95118.83;646086;216;31487;-73
2022/01/08 11:22:16;;;;;;;0.80;0.40;;;2.80;1.40;;;2.91;100.00;95122.49;618573;225;32067;-74
2022/01/08 11:25:01;;;;;;;0.70;0.70;;;1.90;1.40;;;2.28;100.00;95117.12;646754;216;31506;-74
2022/01/08 11:30:33;;;;;;;0.90;0.60;;;1.70;1.40;;;2.05;100.00;95123.50;642920;217;31480;-73
2022/01/08 11:35:51;;;;;;;0.50;0.47;;;1.60;1.40;;;2.05;100.00;95115.53;645757;212;31501;-73
2022/01/08 11:38:33;;;;;;;0.40;0.40;;;1.90;1.40;;;2.20;100.00;95120.16;645712;216;31577;-74
2022/01/08 11:41:14;;;;;;;0.40;0.40;;;1.90;1.40;;;2.30;100.00;95119.69;646937;216;32836;-79
2022/01/08 11:43:56;;;;;;;0.60;0.60;;;2.60;1.40;;;3.19;100.00;95121.95;618586;226;31856;-74
2022/01/08 11:46:37;;;;;;;1.10;0.80;;;4.10;1.40;;;4.00;100.00;95117.31;648188;212;31518;-76
2022/01/08 11:49:19;;;;;;;0.70;0.70;;;3.50;1.40;;;2.85;100.00;95131.00;645826;216;31547;-74
2022/01/08 11:52:15;;;;;;;0.60;0.40;;;2.10;1.40;;;2.70;100.00;95135.09;650014;212;31535;-82
2022/01/08 11:55:02;;;;;;;0.60;0.50;;;1.80;1.40;;;2.15;100.00;95137.34;646536;216;42206;-76
2022/01/08 11:57:44;;;;;;;2.40;0.50;;;1.60;1.40;;;2.43;100.00;95124.11;646917;216;31774;-76
2022/01/08 12:00:46;;;;;;;0.80;0.60;;;2.20;1.40;;;3.83;100.00;95135.49;646848;216;42115;-76
2022/01/08 12:03:31;;;;;;;0.50;0.50;;;5.10;1.40;;;5.81;100.00;95120.32;647075;212;31506;-77
2022/01/08 12:06:33;;;;;;;0.90;0.68;;;6.20;1.40;;;6.28;100.00;95099.59;642203;213;31654;-75
2022/01/08 12:09:22;;;;;;;0.60;0.60;;;6.00;1.40;;;5.73;98.93;95099.66;620075;226;42513;-75
2022/01/08 12:12:04;;;;;;;0.50;0.50;;;4.20;1.40;;;4.10;100.00;95110.34;646330;216;31501;-76
2022/01/08 12:14:46;;;;;;;1.60;0.60;;;2.70;1.40;;;3.39;100.00;95101.16;645554;216;32053;-75
2022/01/08 12:17:28;;;;;;;0.65;0.60;;;2.40;1.40;;;3.07;100.00;95108.25;646715;212;31568;-74
2022/01/08 12:20:10;;;;;;;0.80;0.60;;;2.30;1.40;;;3.85;100.00;95095.00;646925;216;32181;-75
2022/01/08 12:22:51;;;;;;;0.50;0.40;;;4.10;1.40;;;3.85;100.00;95088.95;646676;212;31854;-75
2022/01/08 12:25:40;;;;;;;0.50;0.50;;;2.70;1.40;;;3.35;100.00;95092.02;647192;212;31503;-76